Time;durP1;ratioP1;P1;durP2;ratioP2;P2;SDS_P1;SDS_P2;PMS_P1;PMS_P2;Temp;Humidity;BMP_temperature;BMP_pressure;BME280_temperature;BME280_humidity;BME280_pressure;Samples;Min_cycle;Max_cycle;Signal;HPM_P1;HPM_P2
2022/08/30 00:02:04;;;;;;;7.22;6.00;;;15.90;99.90;;;;;;5057049;28;20085;-67
2022/08/30 00:04:31;;;;;;;8.05;6.82;;;15.80;99.90;;;;;;5057775;28;20554;-68
2022/08/30 00:06:58;;;;;;;10.20;6.72;;;15.80;99.90;;;;;;5055141;28;20135;-67
2022/08/30 00:09:25;;;;;;;7.28;6.55;;;15.80;99.90;;;;;;5057670;28;20106;-67
2022/08/30 00:11:52;;;;;;;;;;;15.70;99.90;;;;;;5057483;28;20109;-66
2022/08/30 00:14:19;;;;;;;9.90;7.40;;;15.70;99.90;;;;;;5051156;28;19920;-68
2022/08/30 00:16:46;;;;;;;8.73;6.95;;;15.60;99.90;;;;;;5037454;28;20037;-67
2022/08/30 00:19:13;;;;;;;7.28;6.32;;;15.60;99.90;;;;;;5037298;28;20045;-67
2022/08/30 00:21:40;;;;;;;12.48;6.20;;;15.60;99.90;;;;;;5037385;28;20041;-67
2022/08/30 00:24:07;;;;;;;7.78;6.35;;;15.50;99.90;;;;;;5035989;28;20049;-64
2022/08/30 00:26:34;;;;;;;7.93;6.55;;;15.50;99.90;;;;;;5036491;28;20699;-66
2022/08/30 00:29:00;;;;;;;;;;;15.50;99.90;;;;;;5036360;28;20048;-66
2022/08/30 00:31:27;;;;;;;7.80;5.75;;;15.50;99.90;;;;;;5036987;28;19963;-67
2022/08/30 00:33:54;;;;;;;;;;;15.50;99.90;;;;;;5036130;28;20083;-65
2022/08/30 00:36:20;;;;;;;12.20;6.90;;;15.50;99.90;;;;;;5039835;28;20414;-65
2022/08/30 00:38:47;;;;;;;9.93;6.18;;;15.50;99.90;;;;;;5055324;28;20033;-64
2022/08/30 00:41:14;;;;;;;;;;;15.50;99.90;;;;;;5054020;28;20391;-65
2022/08/30 00:43:41;;;;;;;9.15;6.68;;;15.50;99.90;;;;;;5056068;28;19928;-64
2022/08/30 00:46:09;;;;;;;;;;;15.40;99.90;;;;;;5056010;28;20044;-64
2022/08/30 00:48:39;;;;;;;7.90;6.13;;;15.40;99.90;;;;;;5056065;28;19931;-64
2022/08/30 00:51:09;;;;;;;7.53;6.80;;;15.40;99.90;;;;;;5053942;28;20048;-65
2022/08/30 00:53:39;;;;;;;7.45;6.38;;;15.30;99.90;;;;;;5055275;28;20654;-64
2022/08/30 00:56:06;;;;;;;7.70;6.90;;;15.30;99.90;;;;;;5055475;28;20468;-64
2022/08/30 00:58:37;;;;;;;7.22;6.47;;;15.30;99.90;;;;;;5055350;28;20079;-64
2022/08/30 01:01:06;;;;;;;10.20;6.57;;;15.30;99.90;;;;;;5055436;28;20044;-64
2022/08/30 01:03:35;;;;;;;9.60;7.00;;;15.30;99.90;;;;;;5055049;28;20821;-65
2022/08/30 01:06:04;;;;;;;9.90;7.68;;;15.20;99.90;;;;;;5053466;28;20508;-66
2022/08/30 01:08:30;;;;;;;9.07;6.45;;;15.20;99.90;;;;;;5055099;28;20048;-64
2022/08/30 01:10:58;;;;;;;;;;;15.20;99.90;;;;;;5055894;28;20048;-65
2022/08/30 01:13:28;;;;;;;8.25;5.75;;;15.20;99.90;;;;;;5054062;28;20060;-64
2022/08/30 01:15:55;;;;;;;10.07;6.47;;;15.10;99.90;;;;;;5036081;28;20041;-66
2022/08/30 01:18:22;;;;;;;8.32;6.85;;;15.10;99.90;;;;;;5034899;28;20144;-65
2022/08/30 01:21:16;;;;;;;10.48;6.80;;;15.10;99.90;;;;;;5034092;28;20049;-69
2022/08/30 01:23:44;;;;;;;7.05;6.35;;;15.10;99.90;;;;;;5035482;28;20503;-66
2022/08/30 01:26:14;;;;;;;6.93;6.28;;;15.00;99.90;;;;;;5034208;28;20037;-66
2022/08/30 01:28:45;;;;;;;8.30;6.65;;;15.00;99.90;;;;;;5035798;28;20037;-68
2022/08/30 01:31:12;;;;;;;9.57;7.70;;;15.00;99.90;;;;;;5034977;28;20049;-65
2022/08/30 01:33:39;;;;;;;8.90;6.07;;;15.00;99.90;;;;;;5035959;28;20448;-67
2022/08/30 01:36:11;;;;;;;7.00;6.38;;;15.00;99.90;;;;;;5038193;28;20087;-68
2022/08/30 01:38:47;;;;;;;7.97;6.82;;;15.00;99.90;;;;;;5055224;28;20055;-67
2022/08/30 01:41:27;;;;;;;7.32;6.45;;;15.00;99.90;;;;;;5053120;28;20546;-66
2022/08/30 01:43:56;;;;;;;11.40;7.28;;;15.00;99.90;;;;;;5055274;28;20118;-67
2022/08/30 01:46:27;;;;;;;10.00;6.75;;;14.90;99.90;;;;;;5054988;28;20113;-69
2022/08/30 01:48:56;;;;;;;11.73;7.15;;;14.90;99.90;;;;;;5054052;28;20056;-67
2022/08/30 01:51:25;;;;;;;9.75;7.53;;;14.90;99.90;;;;;;5055125;28;20768;-66
2022/08/30 01:53:53;;;;;;;7.68;6.72;;;14.90;99.90;;;;;;5053286;28;20087;-68
2022/08/30 01:56:21;;;;;;;8.40;6.57;;;14.90;99.90;;;;;;5055113;28;20043;-67
2022/08/30 01:58:49;;;;;;;10.30;6.97;;;14.90;99.90;;;;;;5054773;28;20045;-67
2022/08/30 02:01:18;;;;;;;9.23;5.72;;;14.90;99.90;;;;;;5053803;28;20045;-67
2022/08/30 02:03:45;;;;;;;7.53;6.40;;;14.90;99.90;;;;;;5053700;28;20045;-66
2022/08/30 02:06:16;;;;;;;7.47;6.47;;;14.90;99.90;;;;;;5051571;28;20048;-67
2022/08/30 02:08:43;;;;;;;11.32;6.18;;;14.90;99.90;;;;;;5054528;28;20292;-67
2022/08/30 02:11:11;;;;;;;8.25;6.60;;;14.90;99.90;;;;;;5055532;28;20696;-65
2022/08/30 02:13:39;;;;;;;9.23;6.72;;;14.90;99.90;;;;;;5054678;28;20044;-66
2022/08/30 02:16:08;;;;;;;16.55;6.75;;;14.90;99.90;;;;;;5035140;28;20039;-66
2022/08/30 02:18:37;;;;;;;7.40;5.95;;;14.80;99.90;;;;;;5037802;28;20063;-66
2022/08/30 02:21:05;;;;;;;7.20;6.45;;;14.80;99.90;;;;;;5036948;28;20044;-66
2022/08/30 02:23:31;;;;;;;8.30;6.72;;;14.80;99.90;;;;;;5035319;28;20048;-65
2022/08/30 02:25:58;;;;;;;;;;;14.80;99.90;;;;;;5034509;28;20498;-67
2022/08/30 02:28:25;;;;;;;6.97;6.28;;;14.80;99.90;;;;;;5033361;28;19955;-65
2022/08/30 02:30:52;;;;;;;;;;;14.70;99.90;;;;;;5035243;28;20653;-66
2022/08/30 02:33:19;;;;;;;8.77;7.00;;;14.70;99.90;;;;;;5032499;28;19924;-66
2022/08/30 02:35:46;;;;;;;8.50;7.30;;;14.70;99.90;;;;;;5037727;28;20060;-65
2022/08/30 02:38:13;;;;;;;7.93;7.13;;;14.60;99.90;;;;;;5054809;28;20036;-68
2022/08/30 02:40:40;;;;;;;9.50;6.90;;;14.60;99.90;;;;;;5058067;28;20044;-65
2022/08/30 02:43:07;;;;;;;7.57;6.57;;;14.60;99.90;;;;;;5054777;28;20064;-67
2022/08/30 02:45:34;;;;;;;;;;;14.60;99.90;;;;;;5058558;28;20091;-66
2022/08/30 02:48:01;;;;;;;8.73;6.32;;;14.60;99.90;;;;;;5057983;28;19959;-68
2022/08/30 02:50:28;;;;;;;8.13;6.47;;;14.60;99.90;;;;;;5058471;28;20049;-67
2022/08/30 02:52:55;;;;;;;8.00;6.18;;;14.60;99.90;;;;;;5058579;28;20129;-67
2022/08/30 02:55:22;;;;;;;;;;;14.60;99.90;;;;;;5058276;28;20044;-65
2022/08/30 02:57:49;;;;;;;10.70;7.43;;;14.60;99.90;;;;;;5058345;28;19928;-67
2022/08/30 03:00:18;;;;;;;7.75;6.47;;;14.60;99.90;;;;;;5055869;28;20499;-65
2022/08/30 03:02:45;;;;;;;8.13;6.47;;;14.60;99.90;;;;;;5042812;28;20139;-67
2022/08/30 03:05:14;;;;;;;13.13;6.35;;;14.60;99.90;;;;;;5057579;28;20075;-66
2022/08/30 03:07:42;;;;;;;8.23;6.80;;;14.60;99.90;;;;;;5056515;28;20060;-68
2022/08/30 03:10:09;;;;;;;9.77;6.53;;;14.60;99.90;;;;;;5057817;28;20048;-67
2022/08/30 03:12:37;;;;;;;7.10;6.25;;;14.60;99.90;;;;;;5057334;28;20063;-65
2022/08/30 03:15:05;;;;;;;7.47;6.68;;;14.60;99.90;;;;;;5043822;28;20395;-66
2022/08/30 03:17:32;;;;;;;7.85;6.68;;;14.60;99.90;;;;;;5037571;28;20041;-68
2022/08/30 03:20:01;;;;;;;6.78;6.03;;;14.60;99.90;;;;;;5036614;28;20045;-66
2022/08/30 03:22:28;;;;;;;8.27;6.38;;;14.50;99.90;;;;;;5037036;28;20500;-66
2022/08/30 03:25:00;;;;;;;7.65;6.15;;;14.50;99.90;;;;;;5037586;28;20108;-66
2022/08/30 03:27:28;;;;;;;9.77;6.60;;;14.50;99.90;;;;;;5036761;28;20055;-66
2022/08/30 03:29:55;;;;;;;6.57;5.97;;;14.50;99.90;;;;;;5037318;28;20458;-66
2022/08/30 03:32:22;;;;;;;8.10;6.72;;;14.50;99.90;;;;;;5036946;28;20060;-66
2022/08/30 03:34:49;;;;;;;8.48;6.25;;;14.40;99.90;;;;;;5037248;28;20114;-66
2022/08/30 03:37:17;;;;;;;12.95;7.45;;;14.50;99.90;;;;;;5040569;28;20540;-67
2022/08/30 03:39:44;;;;;;;6.97;6.28;;;14.40;99.90;;;;;;5036489;28;20106;-65
2022/08/30 03:42:11;;;;;;;7.07;6.20;;;14.40;99.90;;;;;;5036157;28;20056;-67
2022/08/30 03:44:38;;;;;;;8.32;7.10;;;14.50;99.90;;;;;;5035485;28;20103;-66
2022/08/30 03:47:07;;;;;;;8.10;5.93;;;14.40;99.90;;;;;;5037240;28;20083;-67
2022/08/30 03:49:34;;;;;;;13.25;6.95;;;14.40;99.90;;;;;;5036478;28;20095;-67
2022/08/30 03:52:01;;;;;;;7.75;6.90;;;14.40;99.90;;;;;;5037544;28;20057;-65
2022/08/30 03:54:28;;;;;;;12.48;7.60;;;14.40;99.90;;;;;;5036575;28;20095;-68
2022/08/30 03:56:55;;;;;;;8.38;6.70;;;14.30;99.90;;;;;;5035378;28;20112;-66
2022/08/30 03:59:22;;;;;;;10.70;7.25;;;14.30;99.90;;;;;;5037190;28;20507;-66
2022/08/30 04:01:49;;;;;;;12.15;6.95;;;14.30;99.90;;;;;;5036636;28;20037;-67
2022/08/30 04:04:16;;;;;;;8.02;6.97;;;14.30;99.90;;;;;;5037516;28;20702;-65
2022/08/30 04:06:47;;;;;;;13.32;6.53;;;14.20;99.90;;;;;;5042021;28;20075;-68
2022/08/30 04:09:15;;;;;;;8.52;7.45;;;14.20;99.90;;;;;;5057922;28;20090;-66
2022/08/30 04:11:42;;;;;;;11.18;6.97;;;14.20;99.90;;;;;;5056450;28;20045;-67
2022/08/30 04:14:09;;;;;;;8.38;6.50;;;14.20;99.90;;;;;;5042059;28;20543;-66
2022/08/30 04:16:36;;;;;;;10.32;6.80;;;14.20;99.90;;;;;;5037034;28;20045;-65
2022/08/30 04:19:03;;;;;;;7.82;6.60;;;14.10;99.90;;;;;;5036103;28;20047;-65
2022/08/30 04:21:30;;;;;;;10.25;7.05;;;14.10;99.90;;;;;;5036534;28;20160;-65
2022/08/30 04:23:57;;;;;;;10.02;7.25;;;14.10;99.90;;;;;;5036729;28;20498;-66
2022/08/30 04:26:26;;;;;;;8.90;6.68;;;14.20;99.90;;;;;;5036687;28;20134;-69
2022/08/30 04:28:55;;;;;;;7.93;6.75;;;14.20;99.90;;;;;;5036770;28;20118;-65
2022/08/30 04:31:22;;;;;;;8.10;6.80;;;14.20;99.90;;;;;;5035907;28;20060;-65
2022/08/30 04:33:49;;;;;;;12.73;7.05;;;14.20;99.90;;;;;;5034270;28;20059;-66
2022/08/30 04:36:16;;;;;;;;;;;14.20;99.90;;;;;;5039020;28;20035;-65
2022/08/30 04:38:43;;;;;;;11.13;7.55;;;14.20;99.90;;;;;;5056566;28;19924;-66
2022/08/30 04:41:11;;;;;;;;;;;14.20;99.90;;;;;;5054933;28;20047;-66
2022/08/30 04:43:38;;;;;;;8.20;6.32;;;14.20;99.90;;;;;;5054664;28;19998;-65
2022/08/30 04:46:07;;;;;;;8.18;6.80;;;14.20;99.90;;;;;;5055037;28;20407;-65
2022/08/30 04:48:35;;;;;;;7.93;6.70;;;14.30;99.90;;;;;;5055783;28;20048;-66
2022/08/30 04:51:05;;;;;;;10.45;6.57;;;14.30;99.90;;;;;;5055392;28;20361;-67
2022/08/30 04:53:32;;;;;;;8.35;7.50;;;14.20;99.90;;;;;;5054423;28;20052;-65
2022/08/30 04:55:59;;;;;;;12.68;8.05;;;14.20;99.90;;;;;;5055265;28;20052;-65
2022/08/30 04:58:26;;;;;;;8.77;7.47;;;14.20;99.90;;;;;;5055244;28;20041;-67
2022/08/30 05:00:53;;;;;;;9.43;8.07;;;14.20;99.90;;;;;;5055020;28;20599;-65
2022/08/30 05:03:20;;;;;;;7.22;6.45;;;14.20;99.90;;;;;;5053982;28;20083;-66
2022/08/30 05:05:48;;;;;;;;;;;14.30;99.90;;;;;;5056483;28;20044;-67
2022/08/30 05:08:17;;;;;;;8.13;6.63;;;14.30;99.90;;;;;;5053850;28;20121;-67
2022/08/30 05:10:51;;;;;;;9.57;6.70;;;14.30;99.90;;;;;;5055788;28;20036;-66
2022/08/30 05:13:20;;;;;;;9.38;7.05;;;14.30;99.90;;;;;;5055472;28;20036;-65
2022/08/30 05:16:02;;;;;;;8.23;6.95;;;14.40;99.90;;;;;;5034121;28;20072;-65
2022/08/30 05:18:29;;;;;;;7.20;6.35;;;14.40;99.90;;;;;;5034986;28;20048;-67
2022/08/30 05:21:26;;;;;;;;;;;14.40;99.90;;;;;;5051438;28;20047;-67
2022/08/30 05:23:55;;;;;;;9.50;6.18;;;14.50;99.90;;;;;;5021647;28;19931;-66
2022/08/30 05:26:25;;;;;;;7.35;6.30;;;14.60;99.90;;;;;;5033873;28;20084;-65
2022/08/30 05:28:52;;;;;;;8.20;6.78;;;14.60;99.90;;;;;;5035152;28;20081;-64
2022/08/30 05:31:26;;;;;;;7.60;6.68;;;14.70;99.90;;;;;;5035026;28;20055;-64
2022/08/30 05:33:54;;;;;;;7.47;6.53;;;14.70;99.90;;;;;;5035361;28;20521;-65
2022/08/30 05:36:24;;;;;;;14.88;7.38;;;14.80;99.90;;;;;;5038517;28;20040;-64
2022/08/30 05:38:52;;;;;;;11.95;6.88;;;14.90;99.90;;;;;;5055145;28;20045;-64
2022/08/30 05:41:21;;;;;;;9.82;7.28;;;14.90;99.90;;;;;;5054740;28;20921;-65
2022/08/30 05:43:48;;;;;;;15.38;7.65;;;15.00;99.90;;;;;;5053419;28;20722;-65
2022/08/30 05:46:18;;;;;;;11.40;8.25;;;15.10;99.90;;;;;;5033062;28;20047;-64
2022/08/30 05:48:45;;;;;;;10.60;8.63;;;15.20;99.90;;;;;;5035779;28;20041;-64
2022/08/30 05:51:18;;;;;;;14.63;8.02;;;15.30;99.90;;;;;;5034269;28;20487;-65
2022/08/30 05:53:46;;;;;;;11.07;8.20;;;15.40;99.90;;;;;;5034961;28;20044;-65
2022/08/30 05:56:16;;;;;;;11.32;9.10;;;15.50;99.90;;;;;;5035282;28;20049;-64
2022/08/30 05:58:43;;;;;;;12.45;9.85;;;15.60;99.90;;;;;;5034983;28;20047;-65
2022/08/30 06:01:28;;;;;;;13.15;8.45;;;15.70;99.90;;;;;;5034733;28;20049;-64
2022/08/30 06:03:57;;;;;;;10.65;7.63;;;15.80;99.90;;;;;;5032741;28;20045;-63
2022/08/30 06:06:31;;;;;;;11.70;8.07;;;15.90;99.90;;;;;;5035289;28;20053;-64
2022/08/30 06:08:59;;;;;;;8.82;6.63;;;15.90;99.90;;;;;;5043291;28;20044;-64
2022/08/30 06:11:27;;;;;;;9.30;7.25;;;16.00;99.90;;;;;;5056001;28;20048;-64
2022/08/30 06:13:54;;;;;;;10.60;7.53;;;16.00;99.90;;;;;;5055862;28;20044;-64
2022/08/30 06:16:23;;;;;;;8.60;6.10;;;16.10;99.90;;;;;;5038996;28;20076;-65
2022/08/30 06:18:52;;;;;;;8.50;6.80;;;16.20;99.90;;;;;;5038272;28;20048;-66
2022/08/30 06:21:25;;;;;;;9.50;7.53;;;16.30;99.90;;;;;;5038486;28;20045;-60
2022/08/30 06:23:53;;;;;;;10.65;7.50;;;16.40;99.90;;;;;;5037099;28;20052;-59
2022/08/30 06:26:20;;;;;;;11.35;7.30;;;16.50;99.90;;;;;;5038433;28;20079;-60
2022/08/30 06:28:48;;;;;;;7.30;6.60;;;16.60;99.90;;;;;;5038920;28;20041;-60
2022/08/30 06:31:17;;;;;;;10.55;7.40;;;16.70;99.90;;;;;;5038173;28;20060;-59
2022/08/30 06:33:44;;;;;;;10.20;6.70;;;16.90;99.90;;;;;;5037207;28;20510;-59
2022/08/30 06:36:16;;;;;;;9.05;7.13;;;17.00;99.90;;;;;;5041723;28;20037;-59
2022/08/30 06:38:44;;;;;;;8.65;7.53;;;17.10;99.90;;;;;;5053541;28;20051;-59
2022/08/30 06:41:14;;;;;;;9.77;6.35;;;17.30;99.90;;;;;;5038399;28;20132;-59
2022/08/30 06:43:42;;;;;;;9.48;5.90;;;17.40;99.90;;;;;;5036908;28;20048;-59
2022/08/30 06:46:21;;;;;;;7.10;6.18;;;17.40;99.90;;;;;;5035511;28;20047;-60
2022/08/30 06:48:47;;;;;;;10.07;6.70;;;17.50;99.90;;;;;;5037044;28;20045;-59
2022/08/30 06:51:18;;;;;;;8.70;6.95;;;17.60;99.90;;;;;;5037279;28;20674;-59
2022/08/30 06:53:45;;;;;;;9.55;6.53;;;17.70;99.90;;;;;;5036152;28;20076;-59
2022/08/30 06:56:12;;;;;;;10.45;7.90;;;17.70;99.90;;;;;;5037542;28;20041;-59
2022/08/30 06:58:43;;;;;;;10.77;9.20;;;17.80;99.90;;;;;;5037604;28;20116;-62
2022/08/30 07:01:20;;;;;;;12.55;8.18;;;17.90;99.90;;;;;;5037842;28;20040;-57
2022/08/30 07:03:47;;;;;;;;;;;18.00;99.90;;;;;;5038644;28;20131;-58
2022/08/30 07:06:14;;;;;;;12.80;9.48;;;18.10;99.90;;;;;;5034967;28;19928;-58
2022/08/30 07:08:45;;;;;;;9.27;6.85;;;18.30;99.90;;;;;;5040539;28;20068;-59
2022/08/30 07:11:12;;;;;;;11.48;8.55;;;18.40;99.90;;;;;;5036388;28;20447;-56
2022/08/30 07:13:39;;;;;;;12.02;8.50;;;18.50;99.90;;;;;;5036452;28;20798;-59
2022/08/30 07:16:13;;;;;;;13.13;8.25;;;18.50;99.90;;;;;;5015165;28;20053;-58
2022/08/30 07:18:49;;;;;;;11.35;8.50;;;18.60;99.90;;;;;;5017377;28;20060;-59
2022/08/30 07:21:20;;;;;;;13.70;8.95;;;18.60;99.90;;;;;;5016353;28;20049;-59
2022/08/30 07:23:50;;;;;;;12.93;9.60;;;18.70;99.90;;;;;;5016082;28;20038;-60
2022/08/30 07:26:26;;;;;;;12.80;8.32;;;18.80;99.90;;;;;;5033932;28;20059;-60
2022/08/30 07:28:53;;;;;;;14.32;8.73;;;18.90;99.90;;;;;;5036046;28;20072;-60
2022/08/30 07:31:23;;;;;;;9.48;8.23;;;19.00;99.90;;;;;;5036645;28;20045;-64
2022/08/30 07:33:51;;;;;;;12.15;8.35;;;19.10;99.90;;;;;;5035736;28;20047;-64
2022/08/30 07:36:20;;;;;;;9.77;8.18;;;19.20;99.90;;;;;;5031399;28;20041;-63
2022/08/30 07:38:49;;;;;;;11.10;8.15;;;19.20;99.90;;;;;;5015652;28;20049;-63
2022/08/30 07:41:20;;;;;;;9.50;7.53;;;19.40;99.90;;;;;;5040791;28;20056;-63
2022/08/30 07:43:46;;;;;;;12.27;7.75;;;19.80;99.90;;;;;;5055733;28;20152;-63
2022/08/30 07:46:14;;;;;;;9.65;8.27;;;20.40;99.90;;;;;;5049132;28;20152;-66
2022/08/30 07:48:42;;;;;;;13.25;7.97;;;21.10;99.90;;;;;;5016408;28;20861;-67
2022/08/30 07:51:18;;;;;;;12.68;8.18;;;21.70;99.90;;;;;;5016939;28;20107;-63
2022/08/30 07:53:45;;;;;;;9.95;8.52;;;22.10;99.90;;;;;;5015577;28;20412;-64
2022/08/30 07:56:13;;;;;;;12.38;7.93;;;22.50;99.90;;;;;;5016695;28;20262;-65
2022/08/30 07:58:40;;;;;;;10.25;7.85;;;22.90;99.90;;;;;;5025850;28;20068;-63
2022/08/30 08:01:08;;;;;;;9.73;7.90;;;23.30;99.90;;;;;;5016489;28;20048;-65
2022/08/30 08:03:37;;;;;;;12.10;7.55;;;23.60;99.90;;;;;;5015606;28;20049;-62
2022/08/30 08:06:06;;;;;;;10.77;7.15;;;23.90;99.90;;;;;;5015407;28;20084;-63
2022/08/30 08:08:34;;;;;;;9.65;7.57;;;24.30;99.90;;;;;;5015932;28;20045;-63
2022/08/30 08:11:13;;;;;;;9.40;8.02;;;24.70;99.90;;;;;;5027256;28;20392;-62
2022/08/30 08:13:44;;;;;;;10.02;7.13;;;25.10;99.90;;;;;;5028590;28;20508;-62
2022/08/30 08:16:22;;;;;;;9.63;7.40;;;25.40;99.80;;;;;;5034954;28;20697;-63
2022/08/30 08:18:50;;;;;;;8.93;6.60;;;25.80;99.80;;;;;;5036000;28;20071;-65
2022/08/30 08:21:17;;;;;;;7.80;6.70;;;26.10;99.30;;;;;;5034675;28;20045;-62
2022/08/30 08:23:44;;;;;;;9.30;7.15;;;26.30;97.50;;;;;;5034443;28;20128;-63
2022/08/30 08:26:11;;;;;;;9.93;7.05;;;26.50;94.00;;;;;;5035042;28;21104;-64
2022/08/30 08:28:38;;;;;;;10.77;8.00;;;26.60;94.70;;;;;;5037333;28;20048;-64
2022/08/30 08:31:20;;;;;;;28.80;10.30;;;26.70;92.00;;;;;;5038781;28;20041;-65
2022/08/30 08:33:54;;;;;;;19.95;10.38;;;26.90;93.00;;;;;;5017368;28;20415;-64
2022/08/30 08:36:23;;;;;;;13.63;8.18;;;27.10;92.90;;;;;;5020265;28;20049;-65
2022/08/30 08:38:52;;;;;;;9.93;7.70;;;27.20;91.80;;;;;;5030909;28;20049;-65
2022/08/30 08:41:48;;;;;;;10.45;6.75;;;27.20;90.60;;;;;;5014841;28;20059;-65
2022/08/30 08:44:17;;;;;;;18.88;10.20;;;27.10;92.10;;;;;;5034040;28;20726;-65
2022/08/30 08:46:59;;;;;;;11.18;8.02;;;27.20;90.30;;;;;;5017197;28;20099;-66
2022/08/30 08:49:30;;;;;;;10.93;6.72;;;27.10;91.70;;;;;;5018953;28;20136;-65
2022/08/30 08:54:56;;;;;;;9.48;7.28;;;27.10;91.40;;;;;;5033657;28;20041;-57
2022/08/30 08:57:30;;;;;;;10.63;7.95;;;27.20;92.80;;;;;;5016645;28;20049;-67
2022/08/30 08:59:59;;;;;;;8.73;7.82;;;27.20;95.70;;;;;;5033633;28;20041;-65
2022/08/30 09:02:35;;;;;;;14.77;7.85;;;27.30;93.80;;;;;;5016383;28;20068;-65
2022/08/30 09:05:06;;;;;;;8.30;7.43;;;27.40;92.00;;;;;;4981614;28;20053;-65
2022/08/30 09:07:40;;;;;;;11.30;9.07;;;27.50;93.70;;;;;;4997471;28;20062;-66
2022/08/30 09:10:09;;;;;;;11.13;7.75;;;27.70;94.60;;;;;;5017737;28;20042;-66
2022/08/30 09:12:38;;;;;;;12.95;8.13;;;27.80;93.80;;;;;;5030061;28;20541;-65
2022/08/30 09:15:20;;;;;;;13.60;8.45;;;28.00;93.70;;;;;;5014962;28;20055;-66
2022/08/30 09:17:49;;;;;;;11.25;7.63;;;28.30;93.90;;;;;;5033094;28;20212;-65
2022/08/30 09:20:33;;;;;;;14.32;7.80;;;28.40;91.00;;;;;;5034289;28;20049;-65
2022/08/30 09:23:15;;;;;;;15.98;7.25;;;28.40;87.90;;;;;;5034471;28;20044;-66
2022/08/30 09:25:53;;;;;;;10.75;7.35;;;28.40;90.20;;;;;;5016786;28;20067;-65
2022/08/30 09:28:45;;;;;;;9.35;8.07;;;28.40;88.90;;;;;;5033169;28;20053;-65
2022/08/30 09:31:25;;;;;;;10.30;8.07;;;28.40;90.30;;;;;;5029596;28;20736;-66
2022/08/30 09:34:08;;;;;;;8.88;7.78;;;28.50;85.00;;;;;;5016617;28;20060;-66
2022/08/30 09:36:43;;;;;;;9.88;7.65;;;28.50;85.40;;;;;;5028788;28;20056;-67
2022/08/30 09:39:19;;;;;;;13.85;8.18;;;28.60;84.70;;;;;;5033622;28;20052;-66
2022/08/30 09:42:09;;;;;;;9.32;8.40;;;28.80;86.00;;;;;;5025648;28;20034;-66
2022/08/30 09:44:38;;;;;;;10.57;7.90;;;28.90;86.00;;;;;;5011621;28;20073;-65
2022/08/30 09:47:19;;;;;;;10.38;7.80;;;29.20;83.50;;;;;;5017019;28;20045;-66
2022/08/30 09:50:05;;;;;;;9.40;6.45;;;29.30;82.60;;;;;;5017753;28;20144;-64
2022/08/30 09:52:42;;;;;;;8.55;7.68;;;29.30;82.40;;;;;;5000887;28;20049;-65
2022/08/30 09:55:40;;;;;;;11.38;7.15;;;29.20;81.90;;;;;;5018235;28;20746;-66
2022/08/30 09:58:22;;;;;;;14.07;8.05;;;29.10;86.80;;;;;;5000476;28;20045;-65
2022/08/30 10:01:25;;;;;;;8.55;7.65;;;28.90;82.50;;;;;;5036523;28;20052;-65
2022/08/30 10:04:16;;;;;;;18.00;8.95;;;28.80;84.30;;;;;;5037285;28;20047;-65
2022/08/30 10:06:59;;;;;;;9.35;8.35;;;28.60;85.40;;;;;;5021259;28;20073;-65
2022/08/30 10:09:43;;;;;;;9.13;8.15;;;28.50;87.20;;;;;;5052437;28;20049;-66
2022/08/30 10:12:12;;;;;;;8.63;7.68;;;28.20;88.40;;;;;;5037608;28;20095;-65
2022/08/30 10:14:58;;;;;;;13.65;8.32;;;28.00;90.70;;;;;;5027530;28;20445;-66
2022/08/30 10:17:50;;;;;;;7.50;6.68;;;27.80;88.50;;;;;;5018850;28;20459;-67
2022/08/30 10:20:44;;;;;;;8.90;7.40;;;27.50;90.40;;;;;;5022285;28;20115;-63
2022/08/30 10:23:24;;;;;;;11.52;7.95;;;27.40;93.10;;;;;;5017950;28;20045;-66
2022/08/30 10:25:58;;;;;;;8.23;6.72;;;27.50;92.60;;;;;;5000121;28;20527;-65
2022/08/30 10:28:35;;;;;;;11.48;10.00;;;27.80;94.40;;;;;;4999114;28;20046;-66
2022/08/30 10:31:18;;;;;;;12.85;11.50;;;28.10;99.60;;;;;;5014819;28;20247;-67
2022/08/30 10:33:56;;;;;;;14.23;10.90;;;28.50;98.50;;;;;;5015188;28;20580;-66
2022/08/30 10:36:34;;;;;;;15.30;12.05;;;28.70;97.70;;;;;;5019476;28;20124;-66
2022/08/30 10:39:04;;;;;;;18.50;13.98;;;28.70;95.00;;;;;;5019073;28;20041;-66
2022/08/30 10:42:07;;;;;;;13.95;12.07;;;28.70;95.30;;;;;;5035171;28;20690;-66
2022/08/30 10:44:47;;;;;;;17.92;14.57;;;28.80;95.70;;;;;;4997975;28;20099;-68
2022/08/30 10:47:34;;;;;;;12.13;9.98;;;28.80;95.90;;;;;;5016896;28;20400;-68
2022/08/30 10:50:13;;;;;;;18.10;12.20;;;28.80;97.30;;;;;;5014511;28;20045;-67
2022/08/30 10:52:57;;;;;;;18.27;10.38;;;29.00;98.60;;;;;;5016578;28;20046;-67
2022/08/30 10:55:32;;;;;;;13.00;10.93;;;29.20;96.80;;;;;;5015975;28;20049;-66
2022/08/30 10:58:04;;;;;;;11.48;9.20;;;29.40;93.20;;;;;;5013666;28;20046;-64
2022/08/30 11:00:43;;;;;;;8.88;6.88;;;29.50;92.50;;;;;;5025724;28;20287;-65
2022/08/30 11:03:33;;;;;;;8.88;8.00;;;29.60;89.20;;;;;;5014753;28;20049;-65
2022/08/30 11:06:23;;;;;;;9.43;8.35;;;29.80;94.30;;;;;;5013807;28;20280;-64
2022/08/30 11:09:01;;;;;;;9.68;6.20;;;29.90;85.80;;;;;;4998234;28;20057;-64
2022/08/30 11:11:48;;;;;;;8.27;6.68;;;29.90;81.70;;;;;;5028699;28;20168;-64
2022/08/30 11:14:20;;;;;;;8.18;7.35;;;30.00;82.20;;;;;;5027818;28;20049;-65
2022/08/30 11:16:55;;;;;;;8.15;7.22;;;30.30;78.80;;;;;;5033550;28;20045;-62
2022/08/30 11:19:45;;;;;;;8.30;6.25;;;30.50;72.70;;;;;;5018070;28;20041;-64
2022/08/30 11:22:21;;;;;;;9.40;7.25;;;30.70;71.60;;;;;;5033394;28;20048;-64
2022/08/30 11:25:14;;;;;;;11.57;6.45;;;30.80;68.00;;;;;;5035954;28;20040;-64
2022/08/30 11:27:52;;;;;;;7.55;5.80;;;30.90;68.10;;;;;;5033310;28;20125;-65
2022/08/30 11:30:23;;;;;;;6.40;5.70;;;30.90;63.40;;;;;;5033858;28;20048;-66
2022/08/30 11:33:01;;;;;;;8.90;5.60;;;30.90;65.50;;;;;;5034499;28;20048;-66
2022/08/30 11:35:43;;;;;;;8.95;5.82;;;31.00;67.70;;;;;;5034112;28;20577;-65
2022/08/30 11:38:18;;;;;;;6.20;5.20;;;31.00;66.20;;;;;;5012753;28;20577;-67
2022/08/30 11:40:50;;;;;;;6.32;5.70;;;31.00;65.90;;;;;;5013705;28;20076;-67
2022/08/30 11:43:41;;;;;;;8.48;6.05;;;30.90;65.60;;;;;;5012133;28;20242;-67
2022/08/30 11:46:13;;;;;;;8.45;6.07;;;30.80;64.50;;;;;;5046999;28;20618;-64
2022/08/30 11:49:01;;;;;;;8.73;6.47;;;30.60;65.10;;;;;;5034356;28;20045;-68
2022/08/30 11:51:52;;;;;;;6.50;5.20;;;30.50;62.10;;;;;;5032254;28;20045;-66
2022/08/30 11:55:21;;;;;;;5.85;5.15;;;30.40;65.90;;;;;;5033058;28;20049;-65
2022/08/30 11:58:06;;;;;;;5.47;5.07;;;30.50;68.60;;;;;;5032856;28;20412;-66
2022/08/30 12:00:41;;;;;;;6.07;5.05;;;30.70;65.40;;;;;;5032168;28;20036;-68
2022/08/30 12:03:15;;;;;;;6.68;5.78;;;31.00;64.60;;;;;;5032898;28;20068;-67
2022/08/30 12:05:50;;;;;;;10.70;5.57;;;31.20;63.10;;;;;;5016775;28;20041;-66
2022/08/30 12:08:46;;;;;;;7.18;5.70;;;31.30;63.00;;;;;;5034243;28;20055;-65
2022/08/30 12:11:14;;;;;;;5.70;5.22;;;31.40;60.60;;;;;;5015452;28;20049;-66
2022/08/30 12:13:44;;;;;;;8.10;5.63;;;31.40;60.00;;;;;;5032671;28;20419;-66
2022/08/30 12:16:20;;;;;;;8.77;5.78;;;31.50;58.70;;;;;;5032319;28;20060;-66
2022/08/30 12:18:55;;;;;;;8.68;5.70;;;31.50;58.60;;;;;;5032739;28;20097;-67
2022/08/30 12:21:29;;;;;;;5.90;4.65;;;31.50;57.10;;;;;;5015705;28;20272;-67
2022/08/30 12:24:39;;;;;;;5.85;5.25;;;31.40;58.80;;;;;;5034176;28;20055;-65
2022/08/30 12:27:22;;;;;;;6.05;5.45;;;31.10;59.00;;;;;;5033556;28;20435;-66
2022/08/30 12:29:58;;;;;;;6.82;4.53;;;30.90;59.80;;;;;;5032390;28;20048;-67
2022/08/30 12:32:29;;;;;;;7.82;5.40;;;30.70;62.30;;;;;;5015397;28;20166;-68
2022/08/30 12:35:02;;;;;;;23.52;5.50;;;30.50;60.40;;;;;;5032269;28;20041;-64
2022/08/30 12:37:35;;;;;;;7.47;6.00;;;30.40;63.30;;;;;;5013045;28;20053;-65
2022/08/30 12:40:13;;;;;;;5.80;5.10;;;30.50;63.90;;;;;;5012267;28;20127;-67
2022/08/30 12:42:52;;;;;;;5.75;5.22;;;30.50;60.60;;;;;;5013752;28;20379;-65
2022/08/30 12:45:29;;;;;;;5.65;5.00;;;30.30;60.80;;;;;;5021784;28;20125;-68
2022/08/30 12:48:05;;;;;;;8.88;4.88;;;30.10;61.50;;;;;;5030769;28;20122;-65
2022/08/30 12:50:41;;;;;;;6.32;4.63;;;30.10;61.50;;;;;;5030795;28;20059;-66
2022/08/30 12:53:12;;;;;;;5.60;4.97;;;30.00;60.60;;;;;;5015567;28;20156;-67
2022/08/30 12:55:55;;;;;;;5.82;4.90;;;29.90;63.60;;;;;;5033146;28;20363;-67
2022/08/30 12:58:49;;;;;;;6.35;4.55;;;29.80;63.10;;;;;;5015266;28;20460;-66
2022/08/30 13:01:26;;;;;;;5.18;4.65;;;29.70;65.20;;;;;;5031185;28;20037;-67
2022/08/30 13:03:57;;;;;;;8.07;4.82;;;29.90;64.50;;;;;;5027912;28;20171;-66
2022/08/30 13:06:57;;;;;;;7.82;5.05;;;30.00;61.70;;;;;;5011588;28;20120;-64
2022/08/30 13:09:28;;;;;;;46.22;11.52;;;30.10;60.30;;;;;;5022242;28;20080;-65
2022/08/30 13:12:19;;;;;;;13.13;6.03;;;30.20;61.70;;;;;;5014242;28;20048;-65
2022/08/30 13:14:48;;;;;;;18.85;6.95;;;30.30;62.00;;;;;;5011884;28;20107;-66
2022/08/30 13:17:23;;;;;;;27.30;10.20;;;30.50;60.90;;;;;;5011218;28;20061;-65